Kinoura — 3FHE5 — position and weather

sailwx.info

Track history (hours):
 
Tides and Currents Weather Stations Pressure Air Temp Water Temp Dewpoint Dewpoint Depression Visibility Wind Speed Wind Dir Waves Ship Positions

Kinoura

Last reported at 2017-May-25 11:39 UTC. Time now 2017-May-27 02:14 UTC.
Position N 46°14' W 125°31'.

Length 227 m; draft 12.7 m.

Type: Cargo ship. MMSI: 373041000.

Date/timePositionNaut miles runAvg speedWind from/ knotsBaromVisibWave heightAir tempDewpointWater temp
2017-May-25 11:39N 46°14' W 125°31'2 8.8
2017-May-25 11:27N 46°14' W 125°28'4 8.7
2017-May-25 10:59N 46°13' W 125°23'4 8.5
2017-May-25 10:30N 46°13' W 125°17'4 8.1
2017-May-25 10:00N 46°13' W 125°11'4 8.5
2017-May-25 09:30N 46°13' W 125°05'5 9.1
2017-May-25 09:00N 46°13' W 124°58'5 9.2
2017-May-25 08:30N 46°13' W 124°51'5 9.2
2017-May-25 08:00N 46°13' W 124°45'5 9.9
2017-May-25 07:30N 46°13' W 124°38'5 9.9
2017-May-25 07:01N 46°13' W 124°31'5 9.8
2017-May-25 06:30N 46°13' W 124°23'5 9.4
2017-May-25 06:00N 46°13' W 124°17'5 9.5
2017-May-25 05:30N 46°13' W 124°10'5 9.4
2017-May-25 05:00N 46°15' W 124°04'4 8.3
2017-May-25 04:30N 46°14' W 123°59'5 9.3
2017-May-25 04:01N 46°11' W 123°53'4 8.9
2017-May-25 03:30N 46°13' W 123°47'612.1
2017-May-25 03:01N 46°16' W 123°39'713.4
2017-May-25 02:30N 46°16' W 123°29'611.6
2017-May-25 02:00N 46°11' W 123°26'511.0
2017-May-25 01:30N 46°09' W 123°19'612.5
2017-May-25 01:00N 46°11' W 123°11'612.6
2017-May-25 00:30N 46°09' W 123°02'611.1
2017-May-25 00:00N 46°06' W 122°56'510.3
2017-May-24 23:30N 46°01' W 122°52'611.4
2017-May-24 23:00N 45°56' W 122°48'612.2
2017-May-24 22:30N 45°50' W 122°48'612.8
2017-May-24 22:01N 45°44' W 122°46'510.2
2017-May-24 21:30N 45°39' W 122°44'2 4.0
2017-May-24 21:00N 45°38' W 122°42'0 0.0
2017-May-24 20:29N 45°38' W 122°42'0 0.0
2017-May-24 19:56N 45°38' W 122°42'0 0.0
2017-May-24 19:23N 45°38' W 122°42'0 0.0
2017-May-24 18:59N 45°38' W 122°42'0 0.0
2017-May-24 18:29N 45°38' W 122°42'0 0.0
2017-May-24 17:56N 45°38' W 122°42'0 0.0
2017-May-24 17:29N 45°38' W 122°42'0 0.0
2017-May-24 16:59N 45°38' W 122°42'0 0.0
2017-May-24 16:29N 45°38' W 122°42'0 0.0
2017-May-24 15:56N 45°38' W 122°42'0 0.0
2017-May-24 15:26N 45°38' W 122°42'0 0.0
2017-May-24 14:56N 45°38' W 122°42'0 0.0
2017-May-24 14:29N 45°38' W 122°42'0 0.0
2017-May-24 13:29N 45°38' W 122°42'0 0.0
2017-May-24 12:59N 45°38' W 122°42'0 0.0
2017-May-24 12:29N 45°38' W 122°42'0 0.0
2017-May-24 11:56N 45°38' W 122°42'0 0.0
2017-May-24 11:29N 45°38' W 122°42'0 0.0
2017-May-24 10:56N 45°38' W 122°42'0 0.0
2017-May-24 10:17N 45°38' W 122°42'0 0.0
2017-May-24 09:56N 45°38' W 122°42'0 0.0
2017-May-24 09:26N 45°38' W 122°42'0 0.0
2017-May-24 08:59N 45°38' W 122°42'0 0.1
2017-May-24 08:26N 45°38' W 122°42'0 0.0
2017-May-24 07:59N 45°38' W 122°42'0 0.0
2017-May-24 07:26N 45°38' W 122°42'0 0.0
2017-May-24 06:56N 45°38' W 122°42'0 0.0
2017-May-24 06:29N 45°38' W 122°42'0 0.0
2017-May-24 05:59N 45°38' W 122°42'0 0.0
2017-May-24 05:26N 45°38' W 122°42'0 0.0
2017-May-24 04:59N 45°38' W 122°42'0 0.0
2017-May-24 04:23N 45°38' W 122°42'0 0.0
2017-May-24 03:56N 45°38' W 122°42'0 0.0
2017-May-24 03:29N 45°38' W 122°42'0 0.0
2017-May-24 02:59N 45°38' W 122°42'0 0.0
2017-May-24 02:26N 45°38' W 122°42'0 0.0
2017-May-24 01:56N 45°38' W 122°42'0 0.1
2017-May-24 01:26N 45°38' W 122°42'0 0.1
2017-May-24 00:59N 45°38' W 122°42'0 0.0
2017-May-24 00:26N 45°38' W 122°42'0 0.0
2017-May-23 23:59N 45°38' W 122°42'0 0.0
2017-May-23 23:29N 45°38' W 122°42'0 0.0
2017-May-23 22:59N 45°38' W 122°42'0 0.1
2017-May-23 22:29N 45°38' W 122°42'0 0.1
2017-May-23 21:59N 45°38' W 122°42'0 0.0
2017-May-23 21:29N 45°38' W 122°42'0 0.0
2017-May-23 20:50N 45°38' W 122°42'0 0.0
2017-May-23 20:26N 45°38' W 122°42'0 0.0
2017-May-23 19:56N 45°38' W 122°42'0 0.0
2017-May-23 19:29N 45°38' W 122°42'0 0.0
2017-May-23 18:56N 45°38' W 122°42'0 0.0
2017-May-23 18:26N 45°38' W 122°42'0 0.0
2017-May-23 17:59N 45°38' W 122°42'0 0.0
2017-May-23 17:26N 45°38' W 122°42'0 0.0
2017-May-23 16:59N 45°38' W 122°42'0 0.0
2017-May-23 16:26N 45°38' W 122°42'0 0.0
2017-May-23 15:59N 45°38' W 122°42'0 0.0
2017-May-23 15:29N 45°38' W 122°42'0 0.0
2017-May-23 14:53N 45°38' W 122°42'0 0.0
2017-May-23 14:26N 45°38' W 122°42'0 0.0
2017-May-23 13:26N 45°38' W 122°42'0 0.0
2017-May-23 12:59N 45°38' W 122°42'0 0.0
2017-May-23 12:29N 45°38' W 122°42'0 0.0
2017-May-23 11:59N 45°38' W 122°42'0 0.0
2017-May-23 11:29N 45°38' W 122°42'0 0.0
2017-May-23 10:59N 45°38' W 122°42'0 0.0
2017-May-23 10:29N 45°38' W 122°42'0 0.0
2017-May-23 09:59N 45°38' W 122°42'0 0.0
2017-May-23 09:29N 45°38' W 122°42'0 0.0
2017-May-23 08:56N 45°38' W 122°42'0 0.0
2017-May-23 08:26N 45°38' W 122°42'0 0.0
2017-May-23 07:41N 45°38' W 122°42'0 0.0
2017-May-23 07:29N 45°38' W 122°42'0 0.0
2017-May-23 06:59N 45°38' W 122°42'0 0.0
2017-May-23 06:26N 45°38' W 122°42'0 0.0
2017-May-23 05:59N 45°38' W 122°42'0 0.0
2017-May-23 05:29N 45°38' W 122°42'0 0.0
2017-May-23 04:59N 45°38' W 122°42'0 0.0
2017-May-23 04:23N 45°38' W 122°42'0 0.0
2017-May-23 03:56N 45°38' W 122°42'0 0.0
2017-May-23 03:29N 45°38' W 122°42'0 0.0
2017-May-23 02:59N 45°38' W 122°42'0 0.0
2017-May-23 02:26N 45°38' W 122°42'0 0.0
2017-May-23 01:59N 45°38' W 122°42'0 0.0
2017-May-23 01:29N 45°38' W 122°42'0 0.0
2017-May-23 00:56N 45°38' W 122°42'0 0.0
2017-May-23 00:29N 45°38' W 122°42'0 0.0
2017-May-22 23:47N 45°38' W 122°42'0 0.0
2017-May-22 23:26N 45°38' W 122°42'0 0.0
2017-May-22 22:56N 45°38' W 122°42'0 0.0
2017-May-22 22:26N 45°38' W 122°42'0 0.0
2017-May-22 21:56N 45°38' W 122°42'0 0.0
2017-May-22 21:23N 45°38' W 122°42'0 0.0
2017-May-22 20:59N 45°38' W 122°42'0 0.0
2017-May-22 20:26N 45°38' W 122°42'0 0.0
2017-May-22 19:56N 45°38' W 122°42'0 0.0
2017-May-22 19:29N 45°38' W 122°42'0 0.0
2017-May-22 18:59N 45°38' W 122°42'0 0.0
2017-May-22 18:26N 45°38' W 122°42'0 0.0
2017-May-22 17:59N 45°38' W 122°42'0 0.0
2017-May-22 17:29N 45°38' W 122°42'0 0.0
2017-May-22 16:59N 45°38' W 122°42'0 0.0
2017-May-22 16:29N 45°38' W 122°42'0 0.0
2017-May-22 15:56N 45°38' W 122°42'0 0.0
2017-May-22 15:29N 45°38' W 122°42'0 0.2
2017-May-22 14:56N 45°38' W 122°42'1 0.7
2017-May-22 13:59N 45°38' W 122°43'0 0.0
2017-May-22 13:29N 45°38' W 122°43'0 0.0
2017-May-22 12:59N 45°38' W 122°43'0 0.0
2017-May-22 12:26N 45°38' W 122°43'0 0.0
2017-May-22 11:59N 45°38' W 122°43'0 0.0
2017-May-22 11:29N 45°38' W 122°43'0 0.0
2017-May-22 10:59N 45°38' W 122°43'0 0.0
2017-May-22 10:29N 45°38' W 122°43'0 0.0
2017-May-22 09:59N 45°38' W 122°43'0 0.0
2017-May-22 09:29N 45°38' W 122°43'0 0.0
2017-May-22 08:59N 45°38' W 122°43'0 0.0
2017-May-22 08:23N 45°38' W 122°43'0 0.0
2017-May-22 07:56N 45°38' W 122°43'0 0.0
2017-May-22 07:29N 45°38' W 122°43'0 0.0
2017-May-22 06:59N 45°38' W 122°43'0 0.0
2017-May-22 06:29N 45°38' W 122°43'0 0.0
2017-May-22 05:59N 45°38' W 122°43'0 0.0
2017-May-22 05:29N 45°38' W 122°43'0 0.0
2017-May-22 04:59N 45°38' W 122°43'0 0.0
2017-May-22 04:29N 45°38' W 122°43'0 0.0
2017-May-22 03:59N 45°38' W 122°43'0 0.0
2017-May-22 03:29N 45°38' W 122°43'0 0.0
2017-May-22 02:59N 45°38' W 122°43'0 0.4
2017-May-22 02:29N 45°38' W 122°43'2 4.2
2017-May-22 02:01N 45°39' W 122°45'4 8.4
2017-May-22 01:30N 45°43' W 122°46'5 9.8
2017-May-22 01:01N 45°48' W 122°47'510.1
2017-May-22 00:31N 45°53' W 122°48'510.2
2017-May-22 00:00N 45°58' W 122°49'5 9.0
2017-May-21 23:30N 46°02' W 122°53'4 8.5
2017-May-21 23:00N 46°06' W 122°56'3 7.0
2017-May-21 22:31N 46°08' W 122°60'5 9.2
2017-May-21 22:00N 46°10' W 123°06'5 9.5
2017-May-21 21:31N 46°11' W 123°12'510.3
2017-May-21 21:00N 46°09' W 123°19'5 9.2
2017-May-21 20:31N 46°10' W 123°25'510.0
2017-May-21 20:01N 46°15' W 123°27'510.6
2017-May-21 19:30N 46°15' W 123°35'510.7
2017-May-21 19:00N 46°15' W 123°42'1 2.3
2017-May-21 18:30N 46°14' W 123°44'0 0.0
2017-May-21 18:00N 46°14' W 123°44'0 0.0
2017-May-21 17:30N 46°14' W 123°44'0 0.0
2017-May-21 16:57N 46°14' W 123°44'0 0.0
2017-May-21 16:30N 46°14' W 123°44'0 0.1
2017-May-21 16:00N 46°14' W 123°44'0 0.0
2017-May-21 15:30N 46°14' W 123°44'0 0.0
2017-May-21 15:00N 46°14' W 123°44'0 0.0
2017-May-21 14:00N 46°14' W 123°44'0 0.0
2017-May-21 13:30N 46°14' W 123°44'0 0.0
2017-May-21 12:57N 46°14' W 123°44'0 0.0
2017-May-21 12:30N 46°14' W 123°44'0 0.0
2017-May-21 12:00N 46°14' W 123°44'0 0.0
2017-May-21 11:30N 46°14' W 123°44'0 0.0
2017-May-21 11:00N 46°14' W 123°44'0 0.0
2017-May-21 10:30N 46°14' W 123°44'0 0.0
2017-May-21 10:00N 46°14' W 123°44'0 0.0
2017-May-21 09:30N 46°14' W 123°44'0 0.0
2017-May-21 09:00N 46°14' W 123°44'0 0.0
2017-May-21 08:30N 46°14' W 123°44'0 0.0
2017-May-21 08:00N 46°14' W 123°44'0 0.0
2017-May-21 07:27N 46°14' W 123°44'0 0.0
2017-May-21 07:00N 46°14' W 123°44'0 0.0
2017-May-21 06:30N 46°14' W 123°44'0 0.1
2017-May-21 06:00N 46°14' W 123°44'0 0.1
2017-May-21 05:30N 46°14' W 123°44'0 0.2
2017-May-21 05:00N 46°14' W 123°44'0 0.2
2017-May-21 04:30N 46°14' W 123°43'0 0.1
2017-May-21 04:00N 46°14' W 123°43'0 0.0
2017-May-21 03:30N 46°14' W 123°43'0 0.0
2017-May-21 02:57N 46°14' W 123°43'0 0.1
2017-May-21 02:27N 46°14' W 123°43'0 0.2
2017-May-21 02:00N 46°14' W 123°44'0 0.2
2017-May-21 01:30N 46°14' W 123°44'0 0.1
2017-May-21 01:00N 46°14' W 123°44'0 0.1
2017-May-21 00:30N 46°14' W 123°44'0 0.0
2017-May-21 00:00N 46°14' W 123°44'0 0.0
2017-May-20 23:30N 46°14' W 123°44'0 0.0
2017-May-20 23:00N 46°14' W 123°44'0 0.0
2017-May-20 22:30N 46°14' W 123°44'0 0.0
2017-May-20 22:00N 46°14' W 123°44'0 0.0
2017-May-20 21:27N 46°14' W 123°44'0 0.0
2017-May-20 20:57N 46°14' W 123°44'0 0.0
2017-May-20 20:30N 46°14' W 123°44'0 0.0
2017-May-20 20:00N 46°14' W 123°44'0 0.0
2017-May-20 19:30N 46°14' W 123°44'0 0.0
2017-May-20 18:57N 46°14' W 123°44'0 0.0
2017-May-20 18:30N 46°14' W 123°44'0 0.0
2017-May-20 18:00N 46°14' W 123°44'0 0.0
2017-May-20 17:30N 46°14' W 123°44'0 0.0
2017-May-20 17:00N 46°14' W 123°44'0 0.0
2017-May-20 16:27N 46°14' W 123°44'0 0.1
2017-May-20 16:00N 46°14' W 123°44'0 0.0
2017-May-20 15:30N 46°14' W 123°44'0 0.0
2017-May-20 14:57N 46°14' W 123°44'0 0.0
2017-May-20 14:30N 46°14' W 123°44'0 0.0
2017-May-20 13:27N 46°14' W 123°44'0 0.0
2017-May-20 12:57N 46°14' W 123°44'0 0.1
2017-May-20 12:30N 46°14' W 123°44'0 0.0
2017-May-20 12:00N 46°14' W 123°44'0 0.0
2017-May-20 11:27N 46°14' W 123°44'0 0.0
2017-May-20 10:57N 46°14' W 123°44'0 0.0
2017-May-20 10:30N 46°14' W 123°44'0 0.0
2017-May-20 10:00N 46°14' W 123°44'0 0.0
2017-May-20 09:30N 46°14' W 123°44'0 0.0
2017-May-20 08:57N 46°14' W 123°44'0 0.0
2017-May-20 08:27N 46°14' W 123°44'0 0.0
2017-May-20 08:00N 46°14' W 123°44'0 0.0
2017-May-20 07:30N 46°14' W 123°44'0 0.0
2017-May-20 07:00N 46°14' W 123°44'0 0.0
2017-May-20 06:30N 46°14' W 123°44'0 0.0
2017-May-20 06:00N 46°14' W 123°44'0 0.0
2017-May-20 05:30N 46°14' W 123°44'0 0.1
2017-May-20 05:00N 46°14' W 123°44'0 0.3
2017-May-20 04:30N 46°14' W 123°43'0 0.1
2017-May-20 04:00N 46°14' W 123°43'0 0.0
2017-May-20 03:30N 46°14' W 123°43'0 0.1
2017-May-20 03:00N 46°14' W 123°43'0 0.1
2017-May-20 02:30N 46°14' W 123°43'0 0.0
2017-May-20 02:00N 46°14' W 123°43'0 0.0
2017-May-20 01:30N 46°14' W 123°43'0 0.2
2017-May-20 01:00N 46°14' W 123°43'0 0.2
2017-May-20 00:30N 46°14' W 123°44'0 0.1
2017-May-20 00:00N 46°14' W 123°44'0 0.1
2017-May-19 23:27N 46°14' W 123°44'0 0.0
2017-May-19 22:57N 46°14' W 123°44'0 0.1
2017-May-19 22:27N 46°14' W 123°44'0 0.0
2017-May-19 21:57N 46°14' W 123°44'0 0.0
2017-May-19 21:30N 46°14' W 123°44'0 0.0
2017-May-19 21:00N 46°14' W 123°44'0 0.0
2017-May-19 20:30N 46°14' W 123°44'0 0.0
2017-May-19 20:00N 46°14' W 123°44'0 0.0
2017-May-19 19:30N 46°14' W 123°44'0 0.0
2017-May-19 19:00N 46°14' W 123°44'0 0.0
2017-May-19 18:30N 46°14' W 123°44'0 0.0
2017-May-19 18:00N 46°14' W 123°44'0 0.0
2017-May-19 17:30N 46°14' W 123°44'0 0.0
2017-May-19 16:57N 46°14' W 123°44'0 0.0
2017-May-19 16:30N 46°14' W 123°44'0 0.0
2017-May-19 16:00N 46°14' W 123°44'0 0.0
2017-May-19 15:30N 46°14' W 123°44'0 0.0
2017-May-19 15:00N 46°14' W 123°44'0 0.0
2017-May-19 14:00N 46°14' W 123°44'0 0.0
2017-May-19 13:30N 46°14' W 123°44'0 0.0
2017-May-19 12:57N 46°14' W 123°44'0 0.0
2017-May-19 12:30N 46°14' W 123°44'0 0.0
2017-May-19 12:00N 46°14' W 123°44'0 0.0
2017-May-19 11:30N 46°14' W 123°44'0 0.0
2017-May-19 11:00N 46°14' W 123°44'0 0.0
2017-May-19 10:27N 46°14' W 123°44'0 0.0
2017-May-19 10:00N 46°14' W 123°44'0 0.0
2017-May-19 09:30N 46°14' W 123°44'0 0.0
2017-May-19 09:00N 46°14' W 123°44'0 0.0
2017-May-19 08:30N 46°14' W 123°44'0 0.0
2017-May-19 07:57N 46°14' W 123°44'0 0.0
2017-May-19 07:30N 46°14' W 123°44'0 0.0
2017-May-19 07:00N 46°14' W 123°44'0 0.0
2017-May-19 06:30N 46°14' W 123°44'0 0.0
2017-May-19 06:00N 46°14' W 123°44'0 0.0
2017-May-19 05:30N 46°14' W 123°44'0 0.0
2017-May-19 05:00N 46°14' W 123°44'0 0.1
2017-May-19 04:30N 46°14' W 123°44'0 0.0
2017-May-19 04:00N 46°14' W 123°44'0 0.1
2017-May-19 03:27N 46°14' W 123°44'0 0.1
2017-May-19 02:57N 46°14' W 123°44'0 0.0
2017-May-19 02:30N 46°14' W 123°44'0 0.2
2017-May-19 02:00N 46°14' W 123°43'0 0.0
2017-May-19 01:30N 46°14' W 123°43'0 0.1
2017-May-19 01:00N 46°14' W 123°43'0 0.0
2017-May-19 00:30N 46°14' W 123°43'0 0.2
2017-May-19 00:00N 46°14' W 123°44'0 0.2
2017-May-18 23:27N 46°14' W 123°44'0 0.1
2017-May-18 23:00N 46°14' W 123°44'0 0.1
2017-May-18 22:30N 46°14' W 123°44'0 0.0
2017-May-18 22:00N 46°14' W 123°44'0 0.0
2017-May-18 21:30N 46°14' W 123°44'0 0.0
2017-May-18 21:00N 46°14' W 123°44'0 0.0
2017-May-18 20:30N 46°14' W 123°44'0 0.0
2017-May-18 20:00N 46°14' W 123°44'0 0.0
2017-May-18 19:30N 46°14' W 123°44'0 0.0
2017-May-18 19:00N 46°14' W 123°44'0 0.0
2017-May-18 18:30N 46°14' W 123°44'0 0.0
2017-May-18 18:00N 46°14' W 123°44'0 0.0
2017-May-18 17:30N 46°14' W 123°44'0 0.0
2017-May-18 17:01N 46°14' W 123°44'0 0.0
2017-May-18 16:31N 46°14' W 123°44'0 0.0
2017-May-18 16:01N 46°14' W 123°44'0 0.0
2017-May-18 15:31N 46°14' W 123°44'0 0.7
2017-May-18 15:01N 46°14' W 123°44'8 8.2
2017-May-18 14:00N 46°12' W 123°55'612.0
2017-May-18 13:31N 46°15' W 124°02'612.3
2017-May-18 13:00N 46°13' W 124°10'612.3
2017-May-18 12:30N 46°13' W 124°19'611.6
2017-May-18 12:01N 46°13' W 124°28'612.9
2017-May-18 11:30N 46°13' W 124°37'612.8
2017-May-18 11:01N 46°13' W 124°46'612.6
2017-May-18 10:30N 46°13' W 124°55'612.3
2017-May-18 10:01N 46°13' W 125°04'612.7
2017-May-18 09:30N 46°13' W 125°13'612.8
2017-May-18 09:01N 46°13' W 125°22'712.4
2017-May-18 08:27N 46°13' W 125°33'  
Track history (hours):
 
Tides and Currents Weather Stations Pressure Air Temp Water Temp Dewpoint Dewpoint Depression Visibility Wind Speed Wind Dir Waves Ship Positions

Kinoura

Last reported at 2017-May-25 11:39 UTC. Time now 2017-May-27 02:14 UTC.
Position N 46°14' W 125°31'.

Length 227 m; draft 12.7 m.

Type: Cargo ship. MMSI: 373041000.

Date/timePositionNaut miles runAvg speedWind from/ knotsBaromVisibWave heightAir tempDewpointWater temp
2017-May-25 11:39N 46°14' W 125°31'2 8.8
2017-May-25 11:27N 46°14' W 125°28'4 8.7
2017-May-25 10:59N 46°13' W 125°23'4 8.5
2017-May-25 10:30N 46°13' W 125°17'4 8.1
2017-May-25 10:00N 46°13' W 125°11'4 8.5
2017-May-25 09:30N 46°13' W 125°05'5 9.1
2017-May-25 09:00N 46°13' W 124°58'5 9.2
2017-May-25 08:30N 46°13' W 124°51'5 9.2
2017-May-25 08:00N 46°13' W 124°45'5 9.9
2017-May-25 07:30N 46°13' W 124°38'5 9.9
2017-May-25 07:01N 46°13' W 124°31'5 9.8
2017-May-25 06:30N 46°13' W 124°23'5 9.4
2017-May-25 06:00N 46°13' W 124°17'5 9.5
2017-May-25 05:30N 46°13' W 124°10'5 9.4
2017-May-25 05:00N 46°15' W 124°04'4 8.3
2017-May-25 04:30N 46°14' W 123°59'5 9.3
2017-May-25 04:01N 46°11' W 123°53'4 8.9
2017-May-25 03:30N 46°13' W 123°47'612.1
2017-May-25 03:01N 46°16' W 123°39'713.4
2017-May-25 02:30N 46°16' W 123°29'611.6
2017-May-25 02:00N 46°11' W 123°26'511.0
2017-May-25 01:30N 46°09' W 123°19'612.5
2017-May-25 01:00N 46°11' W 123°11'612.6
2017-May-25 00:30N 46°09' W 123°02'611.1
2017-May-25 00:00N 46°06' W 122°56'510.3
2017-May-24 23:30N 46°01' W 122°52'611.4
2017-May-24 23:00N 45°56' W 122°48'612.2
2017-May-24 22:30N 45°50' W 122°48'612.8
2017-May-24 22:01N 45°44' W 122°46'510.2
2017-May-24 21:30N 45°39' W 122°44'2 4.0
2017-May-24 21:00N 45°38' W 122°42'0 0.0
2017-May-24 20:29N 45°38' W 122°42'0 0.0
2017-May-24 19:56N 45°38' W 122°42'0 0.0
2017-May-24 19:23N 45°38' W 122°42'0 0.0
2017-May-24 18:59N 45°38' W 122°42'0 0.0
2017-May-24 18:29N 45°38' W 122°42'0 0.0
2017-May-24 17:56N 45°38' W 122°42'0 0.0
2017-May-24 17:29N 45°38' W 122°42'0 0.0
2017-May-24 16:59N 45°38' W 122°42'0 0.0
2017-May-24 16:29N 45°38' W 122°42'0 0.0
2017-May-24 15:56N 45°38' W 122°42'0 0.0
2017-May-24 15:26N 45°38' W 122°42'0 0.0
2017-May-24 14:56N 45°38' W 122°42'0 0.0
2017-May-24 14:29N 45°38' W 122°42'0 0.0
2017-May-24 13:29N 45°38' W 122°42'0 0.0
2017-May-24 12:59N 45°38' W 122°42'0 0.0
2017-May-24 12:29N 45°38' W 122°42'0 0.0
2017-May-24 11:56N 45°38' W 122°42'0 0.0
2017-May-24 11:29N 45°38' W 122°42'0 0.0
2017-May-24 10:56N 45°38' W 122°42'0 0.0
2017-May-24 10:17N 45°38' W 122°42'0 0.0
2017-May-24 09:56N 45°38' W 122°42'0 0.0
2017-May-24 09:26N 45°38' W 122°42'0 0.0
2017-May-24 08:59N 45°38' W 122°42'0 0.1
2017-May-24 08:26N 45°38' W 122°42'0 0.0
2017-May-24 07:59N 45°38' W 122°42'0 0.0
2017-May-24 07:26N 45°38' W 122°42'0 0.0
2017-May-24 06:56N 45°38' W 122°42'0 0.0
2017-May-24 06:29N 45°38' W 122°42'0 0.0
2017-May-24 05:59N 45°38' W 122°42'0 0.0
2017-May-24 05:26N 45°38' W 122°42'0 0.0
2017-May-24 04:59N 45°38' W 122°42'0 0.0
2017-May-24 04:23N 45°38' W 122°42'0 0.0
2017-May-24 03:56N 45°38' W 122°42'0 0.0
2017-May-24 03:29N 45°38' W 122°42'0 0.0
2017-May-24 02:59N 45°38' W 122°42'0 0.0
2017-May-24 02:26N 45°38' W 122°42'0 0.0
2017-May-24 01:56N 45°38' W 122°42'0 0.1
2017-May-24 01:26N 45°38' W 122°42'0 0.1
2017-May-24 00:59N 45°38' W 122°42'0 0.0
2017-May-24 00:26N 45°38' W 122°42'0 0.0
2017-May-23 23:59N 45°38' W 122°42'0 0.0
2017-May-23 23:29N 45°38' W 122°42'0 0.0
2017-May-23 22:59N 45°38' W 122°42'0 0.1
2017-May-23 22:29N 45°38' W 122°42'0 0.1
2017-May-23 21:59N 45°38' W 122°42'0 0.0
2017-May-23 21:29N 45°38' W 122°42'0 0.0
2017-May-23 20:50N 45°38' W 122°42'0 0.0
2017-May-23 20:26N 45°38' W 122°42'0 0.0
2017-May-23 19:56N 45°38' W 122°42'0 0.0
2017-May-23 19:29N 45°38' W 122°42'0 0.0
2017-May-23 18:56N 45°38' W 122°42'0 0.0
2017-May-23 18:26N 45°38' W 122°42'0 0.0
2017-May-23 17:59N 45°38' W 122°42'0 0.0
2017-May-23 17:26N 45°38' W 122°42'0 0.0
2017-May-23 16:59N 45°38' W 122°42'0 0.0
2017-May-23 16:26N 45°38' W 122°42'0 0.0
2017-May-23 15:59N 45°38' W 122°42'0 0.0
2017-May-23 15:29N 45°38' W 122°42'0 0.0
2017-May-23 14:53N 45°38' W 122°42'0 0.0
2017-May-23 14:26N 45°38' W 122°42'0 0.0
2017-May-23 13:26N 45°38' W 122°42'0 0.0
2017-May-23 12:59N 45°38' W 122°42'0 0.0
2017-May-23 12:29N 45°38' W 122°42'0 0.0
2017-May-23 11:59N 45°38' W 122°42'0 0.0
2017-May-23 11:29N 45°38' W 122°42'0 0.0
2017-May-23 10:59N 45°38' W 122°42'0 0.0
2017-May-23 10:29N 45°38' W 122°42'0 0.0
2017-May-23 09:59N 45°38' W 122°42'0 0.0
2017-May-23 09:29N 45°38' W 122°42'0 0.0
2017-May-23 08:56N 45°38' W 122°42'0 0.0
2017-May-23 08:26N 45°38' W 122°42'0 0.0
2017-May-23 07:41N 45°38' W 122°42'0 0.0
2017-May-23 07:29N 45°38' W 122°42'0 0.0
2017-May-23 06:59N 45°38' W 122°42'0 0.0
2017-May-23 06:26N 45°38' W 122°42'0 0.0
2017-May-23 05:59N 45°38' W 122°42'0 0.0
2017-May-23 05:29N 45°38' W 122°42'0 0.0
2017-May-23 04:59N 45°38' W 122°42'0 0.0
2017-May-23 04:23N 45°38' W 122°42'0 0.0
2017-May-23 03:56N 45°38' W 122°42'0 0.0
2017-May-23 03:29N 45°38' W 122°42'0 0.0
2017-May-23 02:59N 45°38' W 122°42'0 0.0
2017-May-23 02:26N 45°38' W 122°42'0 0.0
2017-May-23 01:59N 45°38' W 122°42'0 0.0
2017-May-23 01:29N 45°38' W 122°42'0 0.0
2017-May-23 00:56N 45°38' W 122°42'0 0.0
2017-May-23 00:29N 45°38' W 122°42'0 0.0
2017-May-22 23:47N 45°38' W 122°42'0 0.0
2017-May-22 23:26N 45°38' W 122°42'0 0.0
2017-May-22 22:56N 45°38' W 122°42'0 0.0
2017-May-22 22:26N 45°38' W 122°42'0 0.0
2017-May-22 21:56N 45°38' W 122°42'0 0.0
2017-May-22 21:23N 45°38' W 122°42'0 0.0
2017-May-22 20:59N 45°38' W 122°42'0 0.0
2017-May-22 20:26N 45°38' W 122°42'0 0.0
2017-May-22 19:56N 45°38' W 122°42'0 0.0
2017-May-22 19:29N 45°38' W 122°42'0 0.0
2017-May-22 18:59N 45°38' W 122°42'0 0.0
2017-May-22 18:26N 45°38' W 122°42'0 0.0
2017-May-22 17:59N 45°38' W 122°42'0 0.0
2017-May-22 17:29N 45°38' W 122°42'0 0.0
2017-May-22 16:59N 45°38' W 122°42'0 0.0
2017-May-22 16:29N 45°38' W 122°42'0 0.0
2017-May-22 15:56N 45°38' W 122°42'0 0.0
2017-May-22 15:29N 45°38' W 122°42'0 0.2
2017-May-22 14:56N 45°38' W 122°42'1 0.7
2017-May-22 13:59N 45°38' W 122°43'0 0.0
2017-May-22 13:29N 45°38' W 122°43'0 0.0
2017-May-22 12:59N 45°38' W 122°43'0 0.0
2017-May-22 12:26N 45°38' W 122°43'0 0.0
2017-May-22 11:59N 45°38' W 122°43'0 0.0
2017-May-22 11:29N 45°38' W 122°43'0 0.0
2017-May-22 10:59N 45°38' W 122°43'0 0.0
2017-May-22 10:29N 45°38' W 122°43'0 0.0
2017-May-22 09:59N 45°38' W 122°43'0 0.0
2017-May-22 09:29N 45°38' W 122°43'0 0.0
2017-May-22 08:59N 45°38' W 122°43'0 0.0
2017-May-22 08:23N 45°38' W 122°43'0 0.0
2017-May-22 07:56N 45°38' W 122°43'0 0.0
2017-May-22 07:29N 45°38' W 122°43'0 0.0
2017-May-22 06:59N 45°38' W 122°43'0 0.0
2017-May-22 06:29N 45°38' W 122°43'0 0.0
2017-May-22 05:59N 45°38' W 122°43'0 0.0
2017-May-22 05:29N 45°38' W 122°43'0 0.0
2017-May-22 04:59N 45°38' W 122°43'0 0.0
2017-May-22 04:29N 45°38' W 122°43'0 0.0
2017-May-22 03:59N 45°38' W 122°43'0 0.0
2017-May-22 03:29N 45°38' W 122°43'0 0.0
2017-May-22 02:59N 45°38' W 122°43'0 0.4
2017-May-22 02:29N 45°38' W 122°43'2 4.2
2017-May-22 02:01N 45°39' W 122°45'4 8.4
2017-May-22 01:30N 45°43' W 122°46'5 9.8
2017-May-22 01:01N 45°48' W 122°47'510.1
2017-May-22 00:31N 45°53' W 122°48'510.2
2017-May-22 00:00N 45°58' W 122°49'5 9.0
2017-May-21 23:30N 46°02' W 122°53'4 8.5
2017-May-21 23:00N 46°06' W 122°56'3 7.0
2017-May-21 22:31N 46°08' W 122°60'5 9.2
2017-May-21 22:00N 46°10' W 123°06'5 9.5
2017-May-21 21:31N 46°11' W 123°12'510.3
2017-May-21 21:00N 46°09' W 123°19'5 9.2
2017-May-21 20:31N 46°10' W 123°25'510.0
2017-May-21 20:01N 46°15' W 123°27'510.6
2017-May-21 19:30N 46°15' W 123°35'510.7
2017-May-21 19:00N 46°15' W 123°42'1 2.3
2017-May-21 18:30N 46°14' W 123°44'0 0.0
2017-May-21 18:00N 46°14' W 123°44'0 0.0
2017-May-21 17:30N 46°14' W 123°44'0 0.0
2017-May-21 16:57N 46°14' W 123°44'0 0.0
2017-May-21 16:30N 46°14' W 123°44'0 0.1
2017-May-21 16:00N 46°14' W 123°44'0 0.0
2017-May-21 15:30N 46°14' W 123°44'0 0.0
2017-May-21 15:00N 46°14' W 123°44'0 0.0
2017-May-21 14:00N 46°14' W 123°44'0 0.0
2017-May-21 13:30N 46°14' W 123°44'0 0.0
2017-May-21 12:57N 46°14' W 123°44'0 0.0
2017-May-21 12:30N 46°14' W 123°44'0 0.0
2017-May-21 12:00N 46°14' W 123°44'0 0.0
2017-May-21 11:30N 46°14' W 123°44'0 0.0
2017-May-21 11:00N 46°14' W 123°44'0 0.0
2017-May-21 10:30N 46°14' W 123°44'0 0.0
2017-May-21 10:00N 46°14' W 123°44'0 0.0
2017-May-21 09:30N 46°14' W 123°44'0 0.0
2017-May-21 09:00N 46°14' W 123°44'0 0.0
2017-May-21 08:30N 46°14' W 123°44'0 0.0
2017-May-21 08:00N 46°14' W 123°44'0 0.0
2017-May-21 07:27N 46°14' W 123°44'0 0.0
2017-May-21 07:00N 46°14' W 123°44'0 0.0
2017-May-21 06:30N 46°14' W 123°44'0 0.1
2017-May-21 06:00N 46°14' W 123°44'0 0.1
2017-May-21 05:30N 46°14' W 123°44'0 0.2
2017-May-21 05:00N 46°14' W 123°44'0 0.2
2017-May-21 04:30N 46°14' W 123°43'0 0.1
2017-May-21 04:00N 46°14' W 123°43'0 0.0
2017-May-21 03:30N 46°14' W 123°43'0 0.0
2017-May-21 02:57N 46°14' W 123°43'0 0.1
2017-May-21 02:27N 46°14' W 123°43'0 0.2
2017-May-21 02:00N 46°14' W 123°44'0 0.2
2017-May-21 01:30N 46°14' W 123°44'0 0.1
2017-May-21 01:00N 46°14' W 123°44'0 0.1
2017-May-21 00:30N 46°14' W 123°44'0 0.0
2017-May-21 00:00N 46°14' W 123°44'0 0.0
2017-May-20 23:30N 46°14' W 123°44'0 0.0
2017-May-20 23:00N 46°14' W 123°44'0 0.0
2017-May-20 22:30N 46°14' W 123°44'0 0.0
2017-May-20 22:00N 46°14' W 123°44'0 0.0
2017-May-20 21:27N 46°14' W 123°44'0 0.0
2017-May-20 20:57N 46°14' W 123°44'0 0.0
2017-May-20 20:30N 46°14' W 123°44'0 0.0
2017-May-20 20:00N 46°14' W 123°44'0 0.0
2017-May-20 19:30N 46°14' W 123°44'0 0.0
2017-May-20 18:57N 46°14' W 123°44'0 0.0
2017-May-20 18:30N 46°14' W 123°44'0 0.0
2017-May-20 18:00N 46°14' W 123°44'0 0.0
2017-May-20 17:30N 46°14' W 123°44'0 0.0
2017-May-20 17:00N 46°14' W 123°44'0 0.0
2017-May-20 16:27N 46°14' W 123°44'0 0.1
2017-May-20 16:00N 46°14' W 123°44'0 0.0
2017-May-20 15:30N 46°14' W 123°44'0 0.0
2017-May-20 14:57N 46°14' W 123°44'0 0.0
2017-May-20 14:30N 46°14' W 123°44'0 0.0
2017-May-20 13:27N 46°14' W 123°44'0 0.0
2017-May-20 12:57N 46°14' W 123°44'0 0.1
2017-May-20 12:30N 46°14' W 123°44'0 0.0
2017-May-20 12:00N 46°14' W 123°44'0 0.0
2017-May-20 11:27N 46°14' W 123°44'0 0.0
2017-May-20 10:57N 46°14' W 123°44'0 0.0
2017-May-20 10:30N 46°14' W 123°44'0 0.0
2017-May-20 10:00N 46°14' W 123°44'0 0.0
2017-May-20 09:30N 46°14' W 123°44'0 0.0
2017-May-20 08:57N 46°14' W 123°44'0 0.0
2017-May-20 08:27N 46°14' W 123°44'0 0.0
2017-May-20 08:00N 46°14' W 123°44'0 0.0
2017-May-20 07:30N 46°14' W 123°44'0 0.0
2017-May-20 07:00N 46°14' W 123°44'0 0.0
2017-May-20 06:30N 46°14' W 123°44'0 0.0
2017-May-20 06:00N 46°14' W 123°44'0 0.0
2017-May-20 05:30N 46°14' W 123°44'0 0.1
2017-May-20 05:00N 46°14' W 123°44'0 0.3
2017-May-20 04:30N 46°14' W 123°43'0 0.1
2017-May-20 04:00N 46°14' W 123°43'0 0.0
2017-May-20 03:30N 46°14' W 123°43'0 0.1
2017-May-20 03:00N 46°14' W 123°43'0 0.1
2017-May-20 02:30N 46°14' W 123°43'0 0.0
2017-May-20 02:00N 46°14' W 123°43'0 0.0
2017-May-20 01:30N 46°14' W 123°43'0 0.2
2017-May-20 01:00N 46°14' W 123°43'0 0.2
2017-May-20 00:30N 46°14' W 123°44'0 0.1
2017-May-20 00:00N 46°14' W 123°44'0 0.1
2017-May-19 23:27N 46°14' W 123°44'0 0.0
2017-May-19 22:57N 46°14' W 123°44'0 0.1
2017-May-19 22:27N 46°14' W 123°44'0 0.0
2017-May-19 21:57N 46°14' W 123°44'0 0.0
2017-May-19 21:30N 46°14' W 123°44'0 0.0
2017-May-19 21:00N 46°14' W 123°44'0 0.0
2017-May-19 20:30N 46°14' W 123°44'0 0.0
2017-May-19 20:00N 46°14' W 123°44'0 0.0
2017-May-19 19:30N 46°14' W 123°44'0 0.0
2017-May-19 19:00N 46°14' W 123°44'0 0.0
2017-May-19 18:30N 46°14' W 123°44'0 0.0
2017-May-19 18:00N 46°14' W 123°44'0 0.0
2017-May-19 17:30N 46°14' W 123°44'0 0.0
2017-May-19 16:57N 46°14' W 123°44'0 0.0
2017-May-19 16:30N 46°14' W 123°44'0 0.0
2017-May-19 16:00N 46°14' W 123°44'0 0.0
2017-May-19 15:30N 46°14' W 123°44'0 0.0
2017-May-19 15:00N 46°14' W 123°44'0 0.0
2017-May-19 14:00N 46°14' W 123°44'0 0.0
2017-May-19 13:30N 46°14' W 123°44'0 0.0
2017-May-19 12:57N 46°14' W 123°44'0 0.0
2017-May-19 12:30N 46°14' W 123°44'0 0.0
2017-May-19 12:00N 46°14' W 123°44'0 0.0
2017-May-19 11:30N 46°14' W 123°44'0 0.0
2017-May-19 11:00N 46°14' W 123°44'0 0.0
2017-May-19 10:27N 46°14' W 123°44'0 0.0
2017-May-19 10:00N 46°14' W 123°44'0 0.0
2017-May-19 09:30N 46°14' W 123°44'0 0.0
2017-May-19 09:00N 46°14' W 123°44'0 0.0
2017-May-19 08:30N 46°14' W 123°44'0 0.0
2017-May-19 07:57N 46°14' W 123°44'0 0.0
2017-May-19 07:30N 46°14' W 123°44'0 0.0
2017-May-19 07:00N 46°14' W 123°44'0 0.0
2017-May-19 06:30N 46°14' W 123°44'0 0.0
2017-May-19 06:00N 46°14' W 123°44'0 0.0
2017-May-19 05:30N 46°14' W 123°44'0 0.0
2017-May-19 05:00N 46°14' W 123°44'0 0.1
2017-May-19 04:30N 46°14' W 123°44'0 0.0
2017-May-19 04:00N 46°14' W 123°44'0 0.1
2017-May-19 03:27N 46°14' W 123°44'0 0.1
2017-May-19 02:57N 46°14' W 123°44'0 0.0
2017-May-19 02:30N 46°14' W 123°44'0 0.2
2017-May-19 02:00N 46°14' W 123°43'0 0.0
2017-May-19 01:30N 46°14' W 123°43'0 0.1
2017-May-19 01:00N 46°14' W 123°43'0 0.0
2017-May-19 00:30N 46°14' W 123°43'0 0.2
2017-May-19 00:00N 46°14' W 123°44'0 0.2
2017-May-18 23:27N 46°14' W 123°44'0 0.1
2017-May-18 23:00N 46°14' W 123°44'0 0.1
2017-May-18 22:30N 46°14' W 123°44'0 0.0
2017-May-18 22:00N 46°14' W 123°44'0 0.0
2017-May-18 21:30N 46°14' W 123°44'0 0.0
2017-May-18 21:00N 46°14' W 123°44'0 0.0
2017-May-18 20:30N 46°14' W 123°44'0 0.0
2017-May-18 20:00N 46°14' W 123°44'0 0.0
2017-May-18 19:30N 46°14' W 123°44'0 0.0
2017-May-18 19:00N 46°14' W 123°44'0 0.0
2017-May-18 18:30N 46°14' W 123°44'0 0.0
2017-May-18 18:00N 46°14' W 123°44'0 0.0
2017-May-18 17:30N 46°14' W 123°44'0 0.0
2017-May-18 17:01N 46°14' W 123°44'0 0.0
2017-May-18 16:31N 46°14' W 123°44'0 0.0
2017-May-18 16:01N 46°14' W 123°44'0 0.0
2017-May-18 15:31N 46°14' W 123°44'0 0.7
2017-May-18 15:01N 46°14' W 123°44'8 8.2
2017-May-18 14:00N 46°12' W 123°55'612.0
2017-May-18 13:31N 46°15' W 124°02'612.3
2017-May-18 13:00N 46°13' W 124°10'612.3
2017-May-18 12:30N 46°13' W 124°19'611.6
2017-May-18 12:01N 46°13' W 124°28'612.9
2017-May-18 11:30N 46°13' W 124°37'612.8
2017-May-18 11:01N 46°13' W 124°46'612.6
2017-May-18 10:30N 46°13' W 124°55'612.3
2017-May-18 10:01N 46°13' W 125°04'612.7
2017-May-18 09:30N 46°13' W 125°13'612.8
2017-May-18 09:01N 46°13' W 125°22'712.4
2017-May-18 08:27N 46°13' W 125°33'  

Dump ship's entire track history